SV2BBO-2 Thessaloniki GR current weather conditions

sailwx.info

Wind from 014 at 7 knots gusting 10

Air temperature 28.3° C
Dewpoint 0.1° C

Last reported at 2017-Jul-27 08:07 UTC.
Time now 2017-Jul-27 08:47 UTC

Location: N 40°38' E 022°57'.
View on Google Maps.

See reports from other nearby stations

  
Tides and Currents Weather Stations Pressure Air Temp Water Temp Dewpoint Dewpoint Depression Visibility Wind Speed Wind Dir Waves Ship Positions
date/time (UTC)wind fromknots sea level pressurealtimeterstation pressurevisibilityair tempwater tempwave heightnotes
2017-Jul-27 08:07 014 7 gusting 10 28.3
2017-Jul-27 07:57 354 6 gusting 7 28.3
2017-Jul-27 07:47 345 6 gusting 10 28.3
2017-Jul-27 07:37 350 6 gusting 8 28.3
2017-Jul-27 07:27 349 6 gusting 8 28.3
2017-Jul-27 07:17 336 5 gusting 7 27.8
2017-Jul-27 07:07 338 7 gusting 9 27.8
2017-Jul-27 06:57 346 7 gusting 10 28.3
2017-Jul-27 06:47 009 6 gusting 9 28.3
2017-Jul-27 06:37 356 6 gusting 11 28.9
2017-Jul-27 06:27 036 4 gusting 7 28.3
2017-Jul-27 06:17 002 6 gusting 6 27.8
2017-Jul-27 06:07 350 8 gusting 10 27.8
2017-Jul-27 05:57 27.2
2017-Jul-27 05:47 359 6 gusting 7 26.7
2017-Jul-27 05:37 001 5 gusting 7 26.1
2017-Jul-27 05:27 352 4 gusting 6 25.6
2017-Jul-27 05:17 356 6 gusting 8 25.6
2017-Jul-27 05:07 339 6 gusting 10 25.6
2017-Jul-27 04:57 015 6 gusting 11 25.6
2017-Jul-27 04:47 008 6 gusting 10 25.6
2017-Jul-27 04:37 002 6 gusting 6 25.6
2017-Jul-27 04:27 357 6 gusting 6 25.6
2017-Jul-27 04:17 348 4 gusting 6 25.6
2017-Jul-27 04:07 349 5 gusting 6 25.6
2017-Jul-27 03:57 353 4 gusting 6 25.6
2017-Jul-27 03:47 007 7 gusting 9 25.0
2017-Jul-27 03:37 355 6 gusting 8 25.6
2017-Jul-27 03:27 25.6
2017-Jul-27 03:17 347 3 gusting 5 25.6
2017-Jul-27 03:07 329 2 gusting 4 25.6
2017-Jul-27 02:57 343 3 gusting 6 25.6
2017-Jul-27 02:47 032 6 gusting 7 25.6
2017-Jul-27 02:37 358 6 gusting 7 25.6
2017-Jul-27 02:27 324 3 gusting 3 25.6
2017-Jul-27 02:17 028 6 gusting 7 25.6
2017-Jul-27 02:07 018 9 gusting 13 25.6
2017-Jul-27 01:57 019 9 gusting 13 25.6
2017-Jul-27 01:38 013 6 gusting 6 25.6
2017-Jul-27 01:28 006 5 gusting 6 25.6
2017-Jul-27 01:18 351 7 gusting 8 25.6
2017-Jul-27 01:08 004 7 gusting 11 26.1
2017-Jul-27 00:58 004 6 gusting 7 25.6
2017-Jul-27 00:48 351 6 gusting 13 26.1
2017-Jul-27 00:38 329 5 gusting 5 26.1
2017-Jul-27 00:28 318 7 gusting 5 26.1
2017-Jul-27 00:18 26.1
2017-Jul-27 00:08 26.1
2017-Jul-26 23:58 330 6 gusting 6 26.7
2017-Jul-26 23:48 352 7 gusting 8 26.7
2017-Jul-26 23:38 354 6 gusting 9 27.2
2017-Jul-26 23:28 030 4 gusting 6 27.2
2017-Jul-26 23:18 007 6 gusting 7 27.2
2017-Jul-26 23:08 011 7 gusting 13 27.8
2017-Jul-26 22:58 350 6 gusting 7 27.8
2017-Jul-26 22:48 354 6 gusting 8 27.8
2017-Jul-26 22:38 346 6 gusting 6 27.8
2017-Jul-26 22:28 350 8 gusting 8 27.8
2017-Jul-26 22:18 023 8 gusting 11 27.8
2017-Jul-26 22:08 356 4 gusting 6 27.8
2017-Jul-26 21:58 002 6 gusting 8 27.8
2017-Jul-26 21:48 27.8
2017-Jul-26 21:38 021 6 gusting 10 27.8
2017-Jul-26 21:28 007 8 gusting 10 27.8
2017-Jul-26 21:18 027 6 gusting 8 28.3
2017-Jul-26 21:08 358 6 gusting 8 28.3
2017-Jul-26 20:58 015 7 gusting 8 28.3
2017-Jul-26 20:48 356 5 gusting 6 28.9
2017-Jul-26 20:38 010 5 gusting 6 28.9
2017-Jul-26 20:28 032 5 gusting 6 28.9
2017-Jul-26 20:18 327 2 gusting 5 28.9
2017-Jul-26 20:08 340 0 gusting 4 28.9
2017-Jul-26 19:58 348 3 gusting 5 29.4
2017-Jul-26 19:48 357 30.0
2017-Jul-26 19:38 339 4 gusting 5 30.0
2017-Jul-26 19:28 313 3 gusting 6 30.6
2017-Jul-26 19:18 278 5 gusting 10 30.6
2017-Jul-26 19:08 357 30.6
2017-Jul-26 18:58 132 3 gusting 4 31.1
2017-Jul-26 18:48 135 3 gusting 6 31.1
2017-Jul-26 18:38 162 2 gusting 4 31.1
2017-Jul-26 18:28 172 2 gusting 3 31.1
2017-Jul-26 18:18 139 3 gusting 4 31.1
2017-Jul-26 18:08 182 2 gusting 3 31.7
2017-Jul-26 17:58 168 2 gusting 5 31.7
2017-Jul-26 17:48 154 3 gusting 5 31.1
2017-Jul-26 17:38 147 3 gusting 6 31.1
2017-Jul-26 17:28 188 2 gusting 4 31.7
2017-Jul-26 17:18 195 5 gusting 6 31.7
2017-Jul-26 17:08 191 5 gusting 7 31.7
2017-Jul-26 16:58 173 4 gusting 7 31.1
2017-Jul-26 16:48 185 3 gusting 4 31.7
2017-Jul-26 16:38 227 2 gusting 6 31.7
2017-Jul-26 16:28 222 0 gusting 5 31.7
2017-Jul-26 16:18 214 3 gusting 7 31.7
2017-Jul-26 16:08 202 5 gusting 6 31.7
2017-Jul-26 15:58 219 2 gusting 7 32.2
2017-Jul-26 15:48 211 4 gusting 5 32.8
2017-Jul-26 15:38 199 3 gusting 6 32.2
2017-Jul-26 15:28 225 3 gusting 5 32.2
2017-Jul-26 15:18 222 3 gusting 5 32.2
2017-Jul-26 15:08 215 5 gusting 6 32.2
2017-Jul-26 14:58 213 4 gusting 5 32.2
2017-Jul-26 14:48 212 2 gusting 3 32.2
2017-Jul-26 14:38 215 0 gusting 5 32.2
2017-Jul-26 14:28 246 3 gusting 3 32.2
2017-Jul-26 14:18 267 2 gusting 4 32.2
2017-Jul-26 14:08 203 3 gusting 3 32.2
2017-Jul-26 13:58 250 3 gusting 3 32.2
2017-Jul-26 13:48 200 0 gusting 3 32.2
2017-Jul-26 13:38 214 2 gusting 2 32.8
2017-Jul-26 13:28 267 3 gusting 2 32.8
2017-Jul-26 13:18 219 0 gusting 3 32.2
2017-Jul-26 13:08 229 0 gusting 4 32.2
2017-Jul-26 12:58 196 2 gusting 3 32.8
2017-Jul-26 12:48 211 4 gusting 5 32.2
2017-Jul-26 12:38 226 5 gusting 6 32.8
2017-Jul-26 12:28 221 3 gusting 4 32.8
2017-Jul-26 12:18 232 4 gusting 6 32.2
2017-Jul-26 12:08 177 2 gusting 5 32.2
2017-Jul-26 11:58 149 2 gusting 3 32.2
2017-Jul-26 11:48 222 2 gusting 3 32.2
2017-Jul-26 11:38 229 4 gusting 5 32.2
2017-Jul-26 11:28 233 4 gusting 5 32.2
2017-Jul-26 11:18 217 6 gusting 6 32.8
2017-Jul-26 11:08 230 5 gusting 6 32.2
2017-Jul-26 10:58 225 6 gusting 7 32.2
2017-Jul-26 10:48 226 5 gusting 7 32.2
2017-Jul-26 10:38 231 6 gusting 6 31.7
2017-Jul-26 10:28 186 3 gusting 6 31.7
2017-Jul-26 10:18 219 6 gusting 6 32.2
2017-Jul-26 10:08 232 5 gusting 6 31.7
2017-Jul-26 09:58 225 5 gusting 5 31.7
2017-Jul-26 09:48 205 5 gusting 5 31.7
2017-Jul-26 09:38 206 3 gusting 5 31.1
2017-Jul-26 09:28 226 4 gusting 5 31.1
2017-Jul-26 09:18 219 3 gusting 5 31.7
2017-Jul-26 09:08 222 3 gusting 5 31.7
2017-Jul-26 08:58 195 2 gusting 3 31.1
2017-Jul-26 08:48 265 4 gusting 7 31.7
2017-Jul-26 08:38 238 4 gusting 6 31.7
2017-Jul-26 08:28 219 3 gusting 5 31.7
2017-Jul-26 08:18 227 3 gusting 6 31.7
2017-Jul-26 08:08 206 3 gusting 5 31.1
2017-Jul-26 07:58 207 3 gusting 5 31.1
2017-Jul-26 07:48 225 3 gusting 5 31.1
2017-Jul-26 07:38 215 3 gusting 6 31.1
2017-Jul-26 07:28 215 2 gusting 4 31.7
2017-Jul-26 07:18 203 3 gusting 4 31.1
2017-Jul-26 07:08 228 3 gusting 4 31.1
2017-Jul-26 06:58 214 2 gusting 3 30.6
2017-Jul-26 06:48 233 1 gusting 2 30.6
2017-Jul-26 06:38 204 3 gusting 2 30.6
2017-Jul-26 06:28 232 2 gusting 3 30.6
2017-Jul-26 06:18 211 2 gusting 3 30.6
2017-Jul-26 06:08 224 2 gusting 3 30.0
2017-Jul-26 05:58 226 4 gusting 5 30.0
2017-Jul-26 05:48 214 3 gusting 4 30.0
2017-Jul-26 05:38 216 3 gusting 3 29.4
2017-Jul-26 05:28 200 28.9
2017-Jul-26 05:18 207 2 gusting 2 28.3
2017-Jul-26 05:08 208 2 gusting 3 27.8
2017-Jul-26 04:58 175 27.2
2017-Jul-26 04:48 224 0 gusting 3 27.2
2017-Jul-26 04:38 113 26.7
2017-Jul-26 04:28 113 26.7
2017-Jul-26 04:18 113 26.7
2017-Jul-26 04:08 114 26.7
2017-Jul-26 03:58 219 26.7
2017-Jul-26 03:48 230 3 gusting 5 26.7
2017-Jul-26 03:38 002 26.7
2017-Jul-26 03:28 074 26.1
2017-Jul-26 03:18 052 0 gusting 3 26.1
2017-Jul-26 03:08 053 26.1
2017-Jul-26 02:58 024 26.1
2017-Jul-26 02:48 278 26.7
2017-Jul-26 02:38 277 2 gusting 3 26.7
2017-Jul-26 02:28 207 26.1
2017-Jul-26 02:18 114 26.7
2017-Jul-26 02:08 114 26.1
2017-Jul-26 01:58 119 26.7
2017-Jul-26 01:48 119 26.7
2017-Jul-26 01:38 119 26.7
2017-Jul-26 01:28 119 26.7
2017-Jul-26 01:18 119 27.2
2017-Jul-26 01:08 119 27.8
2017-Jul-26 00:58 180 27.8
2017-Jul-26 00:48 218 27.8
2017-Jul-26 00:38 219 2 gusting 3 27.8
2017-Jul-26 00:28 264 1 27.8
2017-Jul-26 00:18 113 27.8
2017-Jul-26 00:08 113 27.8
2017-Jul-25 23:58 114 27.8
2017-Jul-25 23:48 113 27.8
2017-Jul-25 23:38 149 28.3
2017-Jul-25 23:28 105 28.3
2017-Jul-25 23:18 305 28.3
2017-Jul-25 23:08 304 28.3
2017-Jul-25 22:58 308 28.3
2017-Jul-25 22:48 308 28.3
2017-Jul-25 22:38 307 28.3
2017-Jul-25 22:28 260 28.3
2017-Jul-25 22:18 260 28.9
2017-Jul-25 22:08 260 28.9
2017-Jul-25 21:58 260 29.4
2017-Jul-25 21:48 237 29.4
2017-Jul-25 21:38 207 29.4
2017-Jul-25 21:28 070 29.4
2017-Jul-25 21:18 070 29.4
2017-Jul-25 21:08 064 29.4
2017-Jul-25 20:58 063 29.4
2017-Jul-25 20:48 051 30.0
2017-Jul-25 20:38 002 3 gusting 3 30.0
2017-Jul-25 20:28 184 30.0
2017-Jul-25 20:18 338 1 gusting 2 30.0
2017-Jul-25 20:08 266 30.0
2017-Jul-25 19:58 249 30.0
2017-Jul-25 19:48 249 30.0
2017-Jul-25 19:38 249 1 gusting 2 30.0
2017-Jul-25 19:28 249 30.0
2017-Jul-25 19:18 222 30.0
2017-Jul-25 19:08 251 30.0
2017-Jul-25 18:58 221 2 gusting 2 30.0
2017-Jul-25 18:48 262 30.0
2017-Jul-25 18:38 245 30.0
2017-Jul-25 18:28 200 30.0
2017-Jul-25 18:18 216 30.0
2017-Jul-25 18:08 216 0 gusting 3 30.0
2017-Jul-25 17:58 217 0 gusting 5 30.0
2017-Jul-25 17:48 217 2 gusting 4 30.0
2017-Jul-25 17:38 220 3 gusting 3 30.6
2017-Jul-25 17:28 200 2 gusting 3 30.6
2017-Jul-25 17:18 207 3 gusting 3 30.6
2017-Jul-25 17:08 226 30.6
2017-Jul-25 16:58 198 0 gusting 4 30.6
2017-Jul-25 16:48 195 31.1
2017-Jul-25 16:38 243 2 gusting 3 31.1
2017-Jul-25 16:28 178 2 gusting 3 31.1
2017-Jul-25 16:18 222 3 gusting 5 31.1
2017-Jul-25 16:08 229 4 gusting 5 31.1
2017-Jul-25 15:58 233 3 gusting 7 31.1
2017-Jul-25 15:48 264 4 gusting 4 31.1
2017-Jul-25 15:38 228 3 gusting 5 31.7
2017-Jul-25 15:28 238 3 gusting 6 32.8
2017-Jul-25 15:18 288 2 gusting 4 32.2
2017-Jul-25 15:08 199 32.8
2017-Jul-25 14:58 225 0 gusting 3 33.3
2017-Jul-25 14:48 215 2 gusting 4 33.3
2017-Jul-25 14:38 211 2 gusting 3 32.8
2017-Jul-25 14:28 255 1 gusting 3 32.8
2017-Jul-25 14:18 233 2 gusting 5 32.8
2017-Jul-25 14:08 227 4 gusting 5 33.3
2017-Jul-25 13:58 231 2 gusting 3 33.3
2017-Jul-25 13:48 225 3 gusting 6 33.3
2017-Jul-25 13:38 228 3 gusting 3 32.8
2017-Jul-25 13:28 232 3 gusting 4 32.8
2017-Jul-25 13:18 223 0 gusting 4 32.2
2017-Jul-25 13:08 224 3 gusting 5 32.2
2017-Jul-25 12:58 232 31.7
2017-Jul-25 12:48 211 4 gusting 5 32.2
2017-Jul-25 12:38 231 2 gusting 3 32.2
2017-Jul-25 12:28 211 3 gusting 6 32.2
2017-Jul-25 12:18 228 4 gusting 4 32.8
2017-Jul-25 12:08 232 4 gusting 7 33.9
2017-Jul-25 11:58 217 33.9
2017-Jul-25 11:48 224 2 gusting 2 32.8
2017-Jul-25 11:38 207 2 gusting 4 32.8
2017-Jul-25 11:28 207 2 gusting 3 31.7
2017-Jul-25 11:18 220 2 gusting 4 31.7
2017-Jul-25 11:08 199 2 gusting 4 31.1
2017-Jul-25 10:58 228 2 gusting 4 31.7
2017-Jul-25 10:48 222 4 gusting 5 31.1
2017-Jul-25 10:38 183 2 gusting 4 30.6
2017-Jul-25 10:28 206 5 gusting 6 31.1
2017-Jul-25 10:18 205 3 gusting 4 31.1
2017-Jul-25 10:08 206 3 gusting 5 31.1
2017-Jul-25 09:58 192 4 gusting 4 30.6
2017-Jul-25 09:48 212 4 gusting 4 30.6
2017-Jul-25 09:38 186 3 gusting 6 31.1
2017-Jul-25 09:28 190 1 gusting 3 30.6
2017-Jul-25 09:18 270 30.6
2017-Jul-25 09:08 204 2 gusting 2 31.1
2017-Jul-25 08:58 215 4 gusting 5 31.7
2017-Jul-25 08:48 214 2 gusting 5 31.7
2017-Jul-25 08:38 224 3 gusting 4 31.7
2017-Jul-25 08:28 207 31.7
2017-Jul-25 08:18 165 4 gusting 5 31.7
2017-Jul-25 08:08 202 31.1